sensor_id;sensor_type;location;lat;lon;timestamp;P1;durP1;ratioP1;P2;durP2;ratioP2
44766;SDS011;30487;48.716;9.272;2023-03-01T00:01:12;16.50;;;8.85;;
44766;SDS011;30487;48.716;9.272;2023-03-01T00:03:43;16.40;;;8.70;;
44766;SDS011;30487;48.716;9.272;2023-03-01T00:06:09;16.50;;;8.05;;
44766;SDS011;30487;48.716;9.272;2023-03-01T00:08:35;17.02;;;7.95;;
44766;SDS011;30487;48.716;9.272;2023-03-01T00:11:09;18.30;;;8.23;;
44766;SDS011;30487;48.716;9.272;2023-03-01T00:13:43;18.80;;;8.55;;
44766;SDS011;30487;48.716;9.272;2023-03-01T00:16:28;17.83;;;8.82;;
44766;SDS011;30487;48.716;9.272;2023-03-01T00:18:56;19.08;;;8.13;;
44766;SDS011;30487;48.716;9.272;2023-03-01T00:21:22;16.73;;;9.02;;
44766;SDS011;30487;48.716;9.272;2023-03-01T00:23:49;15.63;;;8.27;;
44766;SDS011;30487;48.716;9.272;2023-03-01T00:26:15;20.15;;;9.15;;
44766;SDS011;30487;48.716;9.272;2023-03-01T00:28:42;17.52;;;8.77;;
44766;SDS011;30487;48.716;9.272;2023-03-01T00:31:10;16.77;;;8.43;;
44766;SDS011;30487;48.716;9.272;2023-03-01T00:33:37;16.63;;;8.05;;
44766;SDS011;30487;48.716;9.272;2023-03-01T00:36:03;16.52;;;8.38;;
44766;SDS011;30487;48.716;9.272;2023-03-01T00:38:29;16.23;;;8.00;;
44766;SDS011;30487;48.716;9.272;2023-03-01T00:40:55;16.33;;;8.10;;
44766;SDS011;30487;48.716;9.272;2023-03-01T00:43:28;19.88;;;8.75;;
44766;SDS011;30487;48.716;9.272;2023-03-01T00:45:54;16.42;;;8.80;;
44766;SDS011;30487;48.716;9.272;2023-03-01T00:48:20;16.95;;;9.05;;
44766;SDS011;30487;48.716;9.272;2023-03-01T00:50:45;15.77;;;8.45;;
44766;SDS011;30487;48.716;9.272;2023-03-01T00:53:11;17.98;;;8.73;;
44766;SDS011;30487;48.716;9.272;2023-03-01T00:55:36;21.55;;;8.98;;
44766;SDS011;30487;48.716;9.272;2023-03-01T00:58:02;18.23;;;9.13;;
44766;SDS011;30487;48.716;9.272;2023-03-01T01:00:27;17.42;;;8.40;;
44766;SDS011;30487;48.716;9.272;2023-03-01T01:02:53;16.45;;;8.25;;
44766;SDS011;30487;48.716;9.272;2023-03-01T01:05:18;20.42;;;9.60;;
44766;SDS011;30487;48.716;9.272;2023-03-01T01:07:45;19.27;;;9.30;;
44766;SDS011;30487;48.716;9.272;2023-03-01T01:10:11;20.92;;;9.23;;
44766;SDS011;30487;48.716;9.272;2023-03-01T01:12:42;19.58;;;9.48;;
44766;SDS011;30487;48.716;9.272;2023-03-01T01:15:09;18.73;;;9.20;;
44766;SDS011;30487;48.716;9.272;2023-03-01T01:17:37;17.83;;;9.25;;
44766;SDS011;30487;48.716;9.272;2023-03-01T01:20:02;20.40;;;9.63;;
44766;SDS011;30487;48.716;9.272;2023-03-01T01:22:28;17.95;;;8.90;;
44766;SDS011;30487;48.716;9.272;2023-03-01T01:24:54;17.80;;;9.00;;
44766;SDS011;30487;48.716;9.272;2023-03-01T01:27:19;19.40;;;9.73;;
44766;SDS011;30487;48.716;9.272;2023-03-01T01:29:45;17.27;;;9.10;;
44766;SDS011;30487;48.716;9.272;2023-03-01T01:32:10;21.25;;;8.95;;
44766;SDS011;30487;48.716;9.272;2023-03-01T01:34:36;18.33;;;9.18;;
44766;SDS011;30487;48.716;9.272;2023-03-01T01:37:02;17.92;;;9.15;;
44766;SDS011;30487;48.716;9.272;2023-03-01T01:39:28;20.70;;;9.73;;
44766;SDS011;30487;48.716;9.272;2023-03-01T01:41:53;16.58;;;8.65;;
44766;SDS011;30487;48.716;9.272;2023-03-01T01:44:21;21.30;;;9.18;;
44766;SDS011;30487;48.716;9.272;2023-03-01T01:46:59;16.20;;;8.50;;
44766;SDS011;30487;48.716;9.272;2023-03-01T01:52:10;18.65;;;9.07;;
44766;SDS011;30487;48.716;9.272;2023-03-01T01:57:23;22.52;;;9.30;;
44766;SDS011;30487;48.716;9.272;2023-03-01T01:59:54;16.20;;;8.57;;
44766;SDS011;30487;48.716;9.272;2023-03-01T02:02:23;19.38;;;9.02;;
44766;SDS011;30487;48.716;9.272;2023-03-01T02:04:51;19.20;;;9.40;;
44766;SDS011;30487;48.716;9.272;2023-03-01T02:07:23;19.98;;;9.48;;
44766;SDS011;30487;48.716;9.272;2023-03-01T02:09:51;20.92;;;9.23;;
44766;SDS011;30487;48.716;9.272;2023-03-01T02:12:19;16.70;;;8.60;;
44766;SDS011;30487;48.716;9.272;2023-03-01T02:14:47;19.40;;;9.52;;
44766;SDS011;30487;48.716;9.272;2023-03-01T02:17:14;19.52;;;9.48;;
44766;SDS011;30487;48.716;9.272;2023-03-01T02:20:26;20.05;;;9.45;;
44766;SDS011;30487;48.716;9.272;2023-03-01T02:22:52;17.52;;;8.43;;
44766;SDS011;30487;48.716;9.272;2023-03-01T02:30:26;19.17;;;9.60;;
44766;SDS011;30487;48.716;9.272;2023-03-01T02:32:53;18.73;;;9.68;;
44766;SDS011;30487;48.716;9.272;2023-03-01T02:35:27;19.30;;;9.68;;
44766;SDS011;30487;48.716;9.272;2023-03-01T02:38:03;19.23;;;9.32;;
44766;SDS011;30487;48.716;9.272;2023-03-01T02:40:33;19.27;;;9.25;;
44766;SDS011;30487;48.716;9.272;2023-03-01T02:43:01;19.88;;;10.13;;
44766;SDS011;30487;48.716;9.272;2023-03-01T02:45:31;20.98;;;9.77;;
44766;SDS011;30487;48.716;9.272;2023-03-01T02:47:57;19.70;;;9.63;;
44766;SDS011;30487;48.716;9.272;2023-03-01T02:50:25;22.23;;;9.88;;
44766;SDS011;30487;48.716;9.272;2023-03-01T02:53:27;22.20;;;10.48;;
44766;SDS011;30487;48.716;9.272;2023-03-01T02:55:58;20.05;;;10.02;;
44766;SDS011;30487;48.716;9.272;2023-03-01T02:58:24;19.98;;;9.95;;
44766;SDS011;30487;48.716;9.272;2023-03-01T03:00:49;20.73;;;9.85;;
44766;SDS011;30487;48.716;9.272;2023-03-01T03:03:19;20.17;;;10.18;;
44766;SDS011;30487;48.716;9.272;2023-03-01T03:05:46;18.38;;;9.85;;
44766;SDS011;30487;48.716;9.272;2023-03-01T03:08:13;20.05;;;10.43;;
44766;SDS011;30487;48.716;9.272;2023-03-01T03:10:41;23.10;;;10.18;;
44766;SDS011;30487;48.716;9.272;2023-03-01T03:13:14;23.52;;;10.77;;
44766;SDS011;30487;48.716;9.272;2023-03-01T03:15:41;21.10;;;10.35;;
44766;SDS011;30487;48.716;9.272;2023-03-01T03:18:08;18.60;;;9.70;;
44766;SDS011;30487;48.716;9.272;2023-03-01T03:20:36;20.00;;;10.30;;
44766;SDS011;30487;48.716;9.272;2023-03-01T03:23:02;19.15;;;10.68;;
44766;SDS011;30487;48.716;9.272;2023-03-01T03:25:28;20.73;;;10.07;;
44766;SDS011;30487;48.716;9.272;2023-03-01T03:27:55;21.60;;;10.05;;
44766;SDS011;30487;48.716;9.272;2023-03-01T03:30:26;21.58;;;10.60;;
44766;SDS011;30487;48.716;9.272;2023-03-01T03:32:54;21.23;;;10.18;;
44766;SDS011;30487;48.716;9.272;2023-03-01T03:35:24;21.73;;;10.57;;
44766;SDS011;30487;48.716;9.272;2023-03-01T03:37:55;20.95;;;10.43;;
44766;SDS011;30487;48.716;9.272;2023-03-01T03:40:28;22.13;;;10.48;;
44766;SDS011;30487;48.716;9.272;2023-03-01T03:43:05;23.45;;;10.95;;
44766;SDS011;30487;48.716;9.272;2023-03-01T03:45:33;23.92;;;10.20;;
44766;SDS011;30487;48.716;9.272;2023-03-01T03:48:00;20.90;;;10.13;;
44766;SDS011;30487;48.716;9.272;2023-03-01T03:50:26;25.02;;;10.10;;
44766;SDS011;30487;48.716;9.272;2023-03-01T03:52:52;22.83;;;10.57;;
44766;SDS011;30487;48.716;9.272;2023-03-01T03:55:18;20.38;;;10.75;;
44766;SDS011;30487;48.716;9.272;2023-03-01T03:57:44;21.60;;;10.70;;
44766;SDS011;30487;48.716;9.272;2023-03-01T04:00:16;22.80;;;10.43;;
44766;SDS011;30487;48.716;9.272;2023-03-01T04:02:43;19.20;;;9.73;;
44766;SDS011;30487;48.716;9.272;2023-03-01T04:05:10;25.63;;;9.82;;
44766;SDS011;30487;48.716;9.272;2023-03-01T04:07:38;20.73;;;10.07;;
44766;SDS011;30487;48.716;9.272;2023-03-01T04:10:04;18.17;;;9.73;;
44766;SDS011;30487;48.716;9.272;2023-03-01T04:12:32;20.10;;;10.15;;
44766;SDS011;30487;48.716;9.272;2023-03-01T04:14:59;22.40;;;10.20;;
44766;SDS011;30487;48.716;9.272;2023-03-01T04:17:25;20.85;;;9.98;;
44766;SDS011;30487;48.716;9.272;2023-03-01T04:19:50;21.63;;;10.15;;
44766;SDS011;30487;48.716;9.272;2023-03-01T04:22:16;24.90;;;10.80;;
44766;SDS011;30487;48.716;9.272;2023-03-01T04:24:43;21.90;;;10.80;;
44766;SDS011;30487;48.716;9.272;2023-03-01T04:27:09;20.23;;;10.38;;
44766;SDS011;30487;48.716;9.272;2023-03-01T04:29:35;23.92;;;11.15;;
44766;SDS011;30487;48.716;9.272;2023-03-01T04:32:01;22.13;;;11.02;;
44766;SDS011;30487;48.716;9.272;2023-03-01T04:34:27;25.15;;;11.38;;
44766;SDS011;30487;48.716;9.272;2023-03-01T04:36:53;24.25;;;10.40;;
44766;SDS011;30487;48.716;9.272;2023-03-01T04:39:19;21.65;;;10.77;;
44766;SDS011;30487;48.716;9.272;2023-03-01T04:41:45;23.65;;;10.55;;
44766;SDS011;30487;48.716;9.272;2023-03-01T04:44:10;24.30;;;11.55;;
44766;SDS011;30487;48.716;9.272;2023-03-01T04:46:36;21.38;;;11.05;;
44766;SDS011;30487;48.716;9.272;2023-03-01T04:49:02;21.60;;;10.95;;
44766;SDS011;30487;48.716;9.272;2023-03-01T04:51:28;21.58;;;10.77;;
44766;SDS011;30487;48.716;9.272;2023-03-01T04:53:54;23.92;;;10.45;;
44766;SDS011;30487;48.716;9.272;2023-03-01T04:56:20;22.10;;;10.80;;
44766;SDS011;30487;48.716;9.272;2023-03-01T04:58:47;23.75;;;10.63;;
44766;SDS011;30487;48.716;9.272;2023-03-01T05:01:14;25.10;;;10.77;;
44766;SDS011;30487;48.716;9.272;2023-03-01T05:03:51;21.52;;;10.63;;
44766;SDS011;30487;48.716;9.272;2023-03-01T05:06:17;20.23;;;10.98;;
44766;SDS011;30487;48.716;9.272;2023-03-01T05:08:44;20.58;;;10.48;;
44766;SDS011;30487;48.716;9.272;2023-03-01T05:11:10;20.65;;;10.52;;
44766;SDS011;30487;48.716;9.272;2023-03-01T05:13:37;24.83;;;11.38;;
44766;SDS011;30487;48.716;9.272;2023-03-01T05:16:03;22.42;;;11.05;;
44766;SDS011;30487;48.716;9.272;2023-03-01T05:18:31;21.65;;;10.60;;
44766;SDS011;30487;48.716;9.272;2023-03-01T05:21:09;21.30;;;10.93;;
44766;SDS011;30487;48.716;9.272;2023-03-01T05:23:37;20.90;;;10.70;;
44766;SDS011;30487;48.716;9.272;2023-03-01T05:26:04;21.67;;;10.50;;
44766;SDS011;30487;48.716;9.272;2023-03-01T05:28:30;22.55;;;10.65;;
44766;SDS011;30487;48.716;9.272;2023-03-01T05:30:56;22.02;;;11.38;;
44766;SDS011;30487;48.716;9.272;2023-03-01T05:33:23;20.30;;;10.68;;
44766;SDS011;30487;48.716;9.272;2023-03-01T05:35:49;20.95;;;11.02;;
44766;SDS011;30487;48.716;9.272;2023-03-01T05:38:16;21.48;;;10.52;;
44766;SDS011;30487;48.716;9.272;2023-03-01T05:40:43;20.85;;;10.93;;
44766;SDS011;30487;48.716;9.272;2023-03-01T05:43:11;22.40;;;10.52;;
44766;SDS011;30487;48.716;9.272;2023-03-01T05:45:37;19.85;;;10.50;;
44766;SDS011;30487;48.716;9.272;2023-03-01T05:48:04;19.23;;;10.75;;
44766;SDS011;30487;48.716;9.272;2023-03-01T05:50:35;21.90;;;10.63;;
44766;SDS011;30487;48.716;9.272;2023-03-01T05:53:07;20.63;;;10.38;;
44766;SDS011;30487;48.716;9.272;2023-03-01T05:55:35;24.20;;;10.52;;
44766;SDS011;30487;48.716;9.272;2023-03-01T05:58:02;24.17;;;11.27;;
44766;SDS011;30487;48.716;9.272;2023-03-01T06:00:30;22.98;;;11.23;;
44766;SDS011;30487;48.716;9.272;2023-03-01T06:02:56;21.05;;;10.50;;
44766;SDS011;30487;48.716;9.272;2023-03-01T06:05:23;26.38;;;11.43;;
44766;SDS011;30487;48.716;9.272;2023-03-01T06:07:49;23.60;;;11.10;;
44766;SDS011;30487;48.716;9.272;2023-03-01T06:10:15;23.98;;;11.13;;
44766;SDS011;30487;48.716;9.272;2023-03-01T06:12:43;21.92;;;11.05;;
44766;SDS011;30487;48.716;9.272;2023-03-01T06:15:09;23.88;;;10.50;;
44766;SDS011;30487;48.716;9.272;2023-03-01T06:17:39;25.65;;;10.50;;
44766;SDS011;30487;48.716;9.272;2023-03-01T06:20:07;21.52;;;10.40;;
44766;SDS011;30487;48.716;9.272;2023-03-01T06:22:44;23.95;;;11.23;;
44766;SDS011;30487;48.716;9.272;2023-03-01T06:25:11;21.92;;;11.20;;
44766;SDS011;30487;48.716;9.272;2023-03-01T06:27:38;22.23;;;11.52;;
44766;SDS011;30487;48.716;9.272;2023-03-01T06:30:04;23.33;;;11.55;;
44766;SDS011;30487;48.716;9.272;2023-03-01T06:32:32;22.80;;;11.20;;
44766;SDS011;30487;48.716;9.272;2023-03-01T06:34:57;21.73;;;11.10;;
44766;SDS011;30487;48.716;9.272;2023-03-01T06:37:23;21.67;;;10.88;;
44766;SDS011;30487;48.716;9.272;2023-03-01T06:39:50;24.10;;;11.13;;
44766;SDS011;30487;48.716;9.272;2023-03-01T06:42:15;20.63;;;10.77;;
44766;SDS011;30487;48.716;9.272;2023-03-01T06:44:41;27.20;;;11.50;;
44766;SDS011;30487;48.716;9.272;2023-03-01T06:47:07;23.30;;;11.65;;
44766;SDS011;30487;48.716;9.272;2023-03-01T06:49:32;23.88;;;11.07;;
44766;SDS011;30487;48.716;9.272;2023-03-01T06:51:58;23.48;;;11.30;;
44766;SDS011;30487;48.716;9.272;2023-03-01T06:54:24;25.13;;;11.45;;
44766;SDS011;30487;48.716;9.272;2023-03-01T06:56:49;27.17;;;11.80;;
44766;SDS011;30487;48.716;9.272;2023-03-01T06:59:15;28.25;;;12.50;;
44766;SDS011;30487;48.716;9.272;2023-03-01T07:01:42;30.42;;;12.68;;
44766;SDS011;30487;48.716;9.272;2023-03-01T07:04:08;24.48;;;11.35;;
44766;SDS011;30487;48.716;9.272;2023-03-01T07:06:35;25.98;;;11.80;;
44766;SDS011;30487;48.716;9.272;2023-03-01T07:09:01;26.20;;;11.40;;
44766;SDS011;30487;48.716;9.272;2023-03-01T07:11:27;22.80;;;11.02;;
44766;SDS011;30487;48.716;9.272;2023-03-01T07:13:52;22.75;;;11.30;;
44766;SDS011;30487;48.716;9.272;2023-03-01T07:16:19;25.73;;;11.85;;
44766;SDS011;30487;48.716;9.272;2023-03-01T07:18:45;23.52;;;11.45;;
44766;SDS011;30487;48.716;9.272;2023-03-01T07:21:11;24.35;;;11.30;;
44766;SDS011;30487;48.716;9.272;2023-03-01T07:23:38;21.75;;;11.00;;
44766;SDS011;30487;48.716;9.272;2023-03-01T07:26:04;24.15;;;10.75;;
44766;SDS011;30487;48.716;9.272;2023-03-01T07:28:30;25.35;;;11.70;;
44766;SDS011;30487;48.716;9.272;2023-03-01T07:31:00;25.27;;;11.65;;
44766;SDS011;30487;48.716;9.272;2023-03-01T07:33:29;22.15;;;10.98;;
44766;SDS011;30487;48.716;9.272;2023-03-01T07:35:59;21.83;;;10.93;;
44766;SDS011;30487;48.716;9.272;2023-03-01T07:38:25;22.33;;;11.30;;
44766;SDS011;30487;48.716;9.272;2023-03-01T07:40:52;23.80;;;11.43;;
44766;SDS011;30487;48.716;9.272;2023-03-01T07:43:18;28.77;;;12.95;;
44766;SDS011;30487;48.716;9.272;2023-03-01T07:45:44;24.75;;;11.70;;
44766;SDS011;30487;48.716;9.272;2023-03-01T07:48:09;22.88;;;11.50;;
44766;SDS011;30487;48.716;9.272;2023-03-01T07:50:35;24.95;;;11.75;;
44766;SDS011;30487;48.716;9.272;2023-03-01T07:53:01;21.23;;;11.90;;
44766;SDS011;30487;48.716;9.272;2023-03-01T07:55:27;19.33;;;10.93;;
44766;SDS011;30487;48.716;9.272;2023-03-01T07:57:53;19.73;;;11.27;;
44766;SDS011;30487;48.716;9.272;2023-03-01T08:00:18;23.10;;;11.13;;
44766;SDS011;30487;48.716;9.272;2023-03-01T08:02:44;23.58;;;11.80;;
44766;SDS011;30487;48.716;9.272;2023-03-01T08:05:10;21.45;;;11.40;;
44766;SDS011;30487;48.716;9.272;2023-03-01T08:07:36;21.17;;;11.38;;
44766;SDS011;30487;48.716;9.272;2023-03-01T08:10:02;21.23;;;11.13;;
44766;SDS011;30487;48.716;9.272;2023-03-01T08:12:28;21.45;;;12.27;;
44766;SDS011;30487;48.716;9.272;2023-03-01T08:14:53;22.88;;;11.25;;
44766;SDS011;30487;48.716;9.272;2023-03-01T08:17:19;20.83;;;11.90;;
44766;SDS011;30487;48.716;9.272;2023-03-01T08:19:45;22.73;;;12.90;;
44766;SDS011;30487;48.716;9.272;2023-03-01T08:22:10;21.33;;;11.88;;
44766;SDS011;30487;48.716;9.272;2023-03-01T08:24:36;22.80;;;11.38;;
44766;SDS011;30487;48.716;9.272;2023-03-01T08:27:02;20.70;;;11.10;;
44766;SDS011;30487;48.716;9.272;2023-03-01T08:29:29;20.88;;;11.80;;
44766;SDS011;30487;48.716;9.272;2023-03-01T08:31:56;20.88;;;11.25;;
44766;SDS011;30487;48.716;9.272;2023-03-01T08:34:22;19.92;;;11.90;;
44766;SDS011;30487;48.716;9.272;2023-03-01T08:36:47;22.27;;;11.77;;
44766;SDS011;30487;48.716;9.272;2023-03-01T08:39:15;18.95;;;11.32;;
44766;SDS011;30487;48.716;9.272;2023-03-01T08:41:43;22.05;;;11.90;;
44766;SDS011;30487;48.716;9.272;2023-03-01T08:44:09;22.60;;;11.63;;
44766;SDS011;30487;48.716;9.272;2023-03-01T08:46:37;19.48;;;11.50;;
44766;SDS011;30487;48.716;9.272;2023-03-01T08:49:09;20.88;;;11.68;;
44766;SDS011;30487;48.716;9.272;2023-03-01T08:51:42;19.30;;;11.73;;
44766;SDS011;30487;48.716;9.272;2023-03-01T08:54:10;22.80;;;11.52;;
44766;SDS011;30487;48.716;9.272;2023-03-01T08:56:43;19.13;;;11.70;;
44766;SDS011;30487;48.716;9.272;2023-03-01T08:59:12;20.67;;;11.80;;
44766;SDS011;30487;48.716;9.272;2023-03-01T09:01:39;20.33;;;11.55;;
44766;SDS011;30487;48.716;9.272;2023-03-01T09:04:08;20.02;;;11.15;;
44766;SDS011;30487;48.716;9.272;2023-03-01T09:06:34;17.80;;;11.25;;
44766;SDS011;30487;48.716;9.272;2023-03-01T09:09:00;18.58;;;11.80;;
44766;SDS011;30487;48.716;9.272;2023-03-01T09:11:27;19.50;;;12.07;;
44766;SDS011;30487;48.716;9.272;2023-03-01T09:13:53;18.48;;;10.55;;
44766;SDS011;30487;48.716;9.272;2023-03-01T09:16:19;19.58;;;11.10;;
44766;SDS011;30487;48.716;9.272;2023-03-01T09:18:50;18.80;;;11.38;;
44766;SDS011;30487;48.716;9.272;2023-03-01T09:21:18;20.20;;;10.80;;
44766;SDS011;30487;48.716;9.272;2023-03-01T09:23:46;19.70;;;11.85;;
44766;SDS011;30487;48.716;9.272;2023-03-01T09:26:16;18.80;;;11.48;;
44766;SDS011;30487;48.716;9.272;2023-03-01T09:28:45;20.73;;;11.45;;
44766;SDS011;30487;48.716;9.272;2023-03-01T09:31:11;18.83;;;11.65;;
44766;SDS011;30487;48.716;9.272;2023-03-01T09:33:37;21.10;;;12.07;;
44766;SDS011;30487;48.716;9.272;2023-03-01T09:36:05;19.13;;;10.88;;
44766;SDS011;30487;48.716;9.272;2023-03-01T09:38:32;22.13;;;11.80;;
44766;SDS011;30487;48.716;9.272;2023-03-01T09:40:58;21.42;;;12.68;;
44766;SDS011;30487;48.716;9.272;2023-03-01T09:43:34;20.15;;;11.57;;
44766;SDS011;30487;48.716;9.272;2023-03-01T09:48:43;17.35;;;11.38;;
44766;SDS011;30487;48.716;9.272;2023-03-01T09:51:26;17.98;;;11.40;;
44766;SDS011;30487;48.716;9.272;2023-03-01T09:53:54;19.75;;;12.18;;
44766;SDS011;30487;48.716;9.272;2023-03-01T09:56:24;19.70;;;11.10;;
44766;SDS011;30487;48.716;9.272;2023-03-01T10:09:56;18.95;;;11.57;;
44766;SDS011;30487;48.716;9.272;2023-03-01T10:12:24;17.65;;;11.27;;
44766;SDS011;30487;48.716;9.272;2023-03-01T10:14:58;17.58;;;11.50;;
44766;SDS011;30487;48.716;9.272;2023-03-01T10:22:35;18.23;;;11.30;;
44766;SDS011;30487;48.716;9.272;2023-03-01T10:25:02;17.85;;;10.63;;
44766;SDS011;30487;48.716;9.272;2023-03-01T10:27:34;20.02;;;11.18;;
44766;SDS011;30487;48.716;9.272;2023-03-01T10:30:19;18.83;;;11.35;;
44766;SDS011;30487;48.716;9.272;2023-03-01T10:32:59;19.75;;;10.40;;
44766;SDS011;30487;48.716;9.272;2023-03-01T10:35:26;23.83;;;13.75;;
44766;SDS011;30487;48.716;9.272;2023-03-01T10:38:04;19.38;;;12.48;;
44766;SDS011;30487;48.716;9.272;2023-03-01T10:40:35;20.00;;;12.48;;
44766;SDS011;30487;48.716;9.272;2023-03-01T10:43:14;17.42;;;11.48;;
44766;SDS011;30487;48.716;9.272;2023-03-01T10:45:39;16.95;;;11.07;;
44766;SDS011;30487;48.716;9.272;2023-03-01T10:48:25;19.45;;;11.85;;
44766;SDS011;30487;48.716;9.272;2023-03-01T10:53:28;17.13;;;10.82;;
44766;SDS011;30487;48.716;9.272;2023-03-01T10:58:32;19.33;;;11.48;;
44766;SDS011;30487;48.716;9.272;2023-03-01T11:03:27;16.48;;;10.68;;
44766;SDS011;30487;48.716;9.272;2023-03-01T11:08:43;18.20;;;11.27;;
44766;SDS011;30487;48.716;9.272;2023-03-01T11:11:21;18.30;;;11.45;;
44766;SDS011;30487;48.716;9.272;2023-03-01T11:21:35;21.02;;;12.35;;
44766;SDS011;30487;48.716;9.272;2023-03-01T11:24:12;16.35;;;10.68;;
44766;SDS011;30487;48.716;9.272;2023-03-01T11:26:41;18.83;;;10.75;;
44766;SDS011;30487;48.716;9.272;2023-03-01T11:29:17;16.30;;;10.65;;
44766;SDS011;30487;48.716;9.272;2023-03-01T11:32:07;16.02;;;10.15;;
44766;SDS011;30487;48.716;9.272;2023-03-01T11:37:41;16.05;;;10.60;;
44766;SDS011;30487;48.716;9.272;2023-03-01T11:40:24;16.15;;;10.35;;
44766;SDS011;30487;48.716;9.272;2023-03-01T11:43:05;20.73;;;11.60;;
44766;SDS011;30487;48.716;9.272;2023-03-01T11:48:52;14.85;;;10.48;;
44766;SDS011;30487;48.716;9.272;2023-03-01T12:08:51;18.58;;;10.85;;
44766;SDS011;30487;48.716;9.272;2023-03-01T12:14:25;16.80;;;10.25;;
44766;SDS011;30487;48.716;9.272;2023-03-01T12:22:48;15.25;;;9.93;;
44766;SDS011;30487;48.716;9.272;2023-03-01T12:25:38;15.00;;;9.80;;
44766;SDS011;30487;48.716;9.272;2023-03-01T12:41:31;13.88;;;9.43;;
44766;SDS011;30487;48.716;9.272;2023-03-01T12:44:27;14.57;;;9.45;;
44766;SDS011;30487;48.716;9.272;2023-03-01T12:47:19;13.27;;;9.20;;
44766;SDS011;30487;48.716;9.272;2023-03-01T12:50:16;15.20;;;9.45;;
44766;SDS011;30487;48.716;9.272;2023-03-01T12:52:47;18.42;;;9.98;;
44766;SDS011;30487;48.716;9.272;2023-03-01T13:06:25;14.18;;;9.15;;
44766;SDS011;30487;48.716;9.272;2023-03-01T13:08:58;16.27;;;9.13;;
44766;SDS011;30487;48.716;9.272;2023-03-01T13:11:34;18.73;;;9.98;;
44766;SDS011;30487;48.716;9.272;2023-03-01T13:16:53;15.38;;;9.98;;
44766;SDS011;30487;48.716;9.272;2023-03-01T13:21:57;14.82;;;9.20;;
44766;SDS011;30487;48.716;9.272;2023-03-01T13:29:41;14.75;;;9.40;;
44766;SDS011;30487;48.716;9.272;2023-03-01T13:32:20;14.60;;;9.88;;
44766;SDS011;30487;48.716;9.272;2023-03-01T13:34:57;15.95;;;9.18;;
44766;SDS011;30487;48.716;9.272;2023-03-01T13:37:28;14.75;;;9.80;;
44766;SDS011;30487;48.716;9.272;2023-03-01T13:39:58;14.68;;;9.18;;
44766;SDS011;30487;48.716;9.272;2023-03-01T13:42:31;13.80;;;8.60;;
44766;SDS011;30487;48.716;9.272;2023-03-01T13:45:03;12.05;;;8.20;;
44766;SDS011;30487;48.716;9.272;2023-03-01T13:47:59;15.32;;;8.82;;
44766;SDS011;30487;48.716;9.272;2023-03-01T13:50:32;13.02;;;8.73;;
44766;SDS011;30487;48.716;9.272;2023-03-01T13:53:05;16.98;;;8.90;;
44766;SDS011;30487;48.716;9.272;2023-03-01T13:55:36;16.08;;;8.88;;
44766;SDS011;30487;48.716;9.272;2023-03-01T13:58:23;15.27;;;8.93;;
44766;SDS011;30487;48.716;9.272;2023-03-01T14:01:02;13.68;;;8.77;;
44766;SDS011;30487;48.716;9.272;2023-03-01T14:03:30;15.88;;;8.40;;
44766;SDS011;30487;48.716;9.272;2023-03-01T14:19:24;15.55;;;8.57;;
44766;SDS011;30487;48.716;9.272;2023-03-01T14:22:03;13.02;;;8.20;;
44766;SDS011;30487;48.716;9.272;2023-03-01T14:24:53;13.75;;;8.65;;
44766;SDS011;30487;48.716;9.272;2023-03-01T14:27:21;13.23;;;8.45;;
44766;SDS011;30487;48.716;9.272;2023-03-01T14:29:54;13.60;;;7.80;;
44766;SDS011;30487;48.716;9.272;2023-03-01T14:32:24;15.70;;;9.70;;
44766;SDS011;30487;48.716;9.272;2023-03-01T14:34:51;14.60;;;9.32;;
44766;SDS011;30487;48.716;9.272;2023-03-01T14:39:53;13.05;;;9.30;;
44766;SDS011;30487;48.716;9.272;2023-03-01T14:42:20;15.32;;;9.45;;
44766;SDS011;30487;48.716;9.272;2023-03-01T14:44:49;16.48;;;10.32;;
44766;SDS011;30487;48.716;9.272;2023-03-01T14:47:37;16.08;;;10.18;;
44766;SDS011;30487;48.716;9.272;2023-03-01T14:52:36;20.90;;;10.05;;
44766;SDS011;30487;48.716;9.272;2023-03-01T14:55:13;17.38;;;9.45;;
44766;SDS011;30487;48.716;9.272;2023-03-01T14:57:44;23.70;;;12.40;;
44766;SDS011;30487;48.716;9.272;2023-03-01T15:00:15;16.48;;;9.93;;
44766;SDS011;30487;48.716;9.272;2023-03-01T15:02:47;15.57;;;9.45;;
44766;SDS011;30487;48.716;9.272;2023-03-01T15:05:15;15.65;;;9.50;;
44766;SDS011;30487;48.716;9.272;2023-03-01T15:07:50;15.85;;;9.35;;
44766;SDS011;30487;48.716;9.272;2023-03-01T15:10:19;16.65;;;10.15;;
44766;SDS011;30487;48.716;9.272;2023-03-01T15:12:47;17.70;;;10.43;;
44766;SDS011;30487;48.716;9.272;2023-03-01T15:15:26;15.00;;;10.02;;
44766;SDS011;30487;48.716;9.272;2023-03-01T15:18:19;15.70;;;9.70;;
44766;SDS011;30487;48.716;9.272;2023-03-01T15:20:47;14.63;;;9.38;;
44766;SDS011;30487;48.716;9.272;2023-03-01T15:25:50;15.32;;;9.65;;
44766;SDS011;30487;48.716;9.272;2023-03-01T15:28:21;14.57;;;9.13;;
44766;SDS011;30487;48.716;9.272;2023-03-01T15:30:52;17.33;;;9.43;;
44766;SDS011;30487;48.716;9.272;2023-03-01T15:35:59;15.75;;;9.20;;
44766;SDS011;30487;48.716;9.272;2023-03-01T15:38:55;15.38;;;9.68;;
44766;SDS011;30487;48.716;9.272;2023-03-01T15:43:51;17.30;;;9.57;;
44766;SDS011;30487;48.716;9.272;2023-03-01T15:46:34;17.30;;;10.10;;
44766;SDS011;30487;48.716;9.272;2023-03-01T15:51:59;20.42;;;10.60;;
44766;SDS011;30487;48.716;9.272;2023-03-01T15:54:25;18.70;;;9.73;;
44766;SDS011;30487;48.716;9.272;2023-03-01T15:56:52;19.55;;;9.90;;
44766;SDS011;30487;48.716;9.272;2023-03-01T15:59:18;16.45;;;10.15;;
44766;SDS011;30487;48.716;9.272;2023-03-01T16:01:44;15.75;;;9.85;;
44766;SDS011;30487;48.716;9.272;2023-03-01T16:04:14;16.80;;;10.02;;
44766;SDS011;30487;48.716;9.272;2023-03-01T16:06:51;21.13;;;11.48;;
44766;SDS011;30487;48.716;9.272;2023-03-01T16:09:22;20.38;;;11.27;;
44766;SDS011;30487;48.716;9.272;2023-03-01T16:11:48;17.63;;;10.32;;
44766;SDS011;30487;48.716;9.272;2023-03-01T16:14:17;17.10;;;10.27;;
44766;SDS011;30487;48.716;9.272;2023-03-01T16:16:45;16.98;;;10.55;;
44766;SDS011;30487;48.716;9.272;2023-03-01T16:19:13;22.70;;;11.95;;
44766;SDS011;30487;48.716;9.272;2023-03-01T16:21:39;19.02;;;10.95;;
44766;SDS011;30487;48.716;9.272;2023-03-01T16:24:05;22.85;;;12.13;;
44766;SDS011;30487;48.716;9.272;2023-03-01T16:26:31;17.88;;;10.68;;
44766;SDS011;30487;48.716;9.272;2023-03-01T16:28:57;20.50;;;11.75;;
44766;SDS011;30487;48.716;9.272;2023-03-01T16:31:23;20.25;;;11.20;;
44766;SDS011;30487;48.716;9.272;2023-03-01T16:33:53;19.55;;;11.35;;
44766;SDS011;30487;48.716;9.272;2023-03-01T16:36:21;19.38;;;10.25;;
44766;SDS011;30487;48.716;9.272;2023-03-01T16:38:48;20.83;;;11.45;;
44766;SDS011;30487;48.716;9.272;2023-03-01T16:41:16;18.85;;;10.90;;
44766;SDS011;30487;48.716;9.272;2023-03-01T16:43:43;20.73;;;11.68;;
44766;SDS011;30487;48.716;9.272;2023-03-01T16:48:42;25.25;;;13.35;;
44766;SDS011;30487;48.716;9.272;2023-03-01T16:51:08;24.70;;;13.13;;
44766;SDS011;30487;48.716;9.272;2023-03-01T16:53:34;20.77;;;12.43;;
44766;SDS011;30487;48.716;9.272;2023-03-01T16:56:06;23.17;;;12.48;;
44766;SDS011;30487;48.716;9.272;2023-03-01T16:58:34;23.48;;;11.43;;
44766;SDS011;30487;48.716;9.272;2023-03-01T17:01:07;24.25;;;11.25;;
44766;SDS011;30487;48.716;9.272;2023-03-01T17:03:38;23.13;;;11.07;;
44766;SDS011;30487;48.716;9.272;2023-03-01T17:06:06;24.02;;;11.20;;